Three Stars — 3ELI2 — position and weather

sailwx.info

Track history (hours):
 
Tides and Currents Weather Stations Pressure Air Temp Water Temp Dewpoint Dewpoint Depression Visibility Wind Speed Wind Dir Waves Ship Positions

Three Stars

Last reported at 2016-Jul-17 10:33 UTC. Time now 2016-Jul-24 01:00 UTC.
Position S 26°43' E 153°18'.

Length 225 m; draft 13.9 m.

Type: Cargo ship. MMSI: 372950000.

Date/timePositionNaut miles runAvg speedWind from/ knotsBaromVisibWave heightAir tempDewpointWater temp
2016-Jul-17 10:33S 26°43' E 153°18'6 5.7
2016-Jul-17 09:28S 26°46' E 153°11'7 7.7
2016-Jul-17 08:33S 26°53' E 153°10'9 9.4
2016-Jul-17 07:33S 27°02' E 153°15'9 8.5
2016-Jul-17 06:33S 27°08' E 153°21'8 4.0
2016-Jul-17 04:31S 27°16' E 153°18'0 0.1
2016-Jul-17 03:31S 27°16' E 153°18'0 0.1
2016-Jul-17 02:31S 27°16' E 153°18'0 0.0
2016-Jul-17 01:31S 27°16' E 153°18'0 0.0
2016-Jul-17 00:31S 27°16' E 153°18'0 0.1
2016-Jul-16 23:31S 27°16' E 153°18'0 0.1
2016-Jul-16 22:31S 27°16' E 153°18'0 0.1
2016-Jul-16 21:31S 27°16' E 153°18'0 0.1
2016-Jul-16 20:31S 27°16' E 153°18'0 0.0
2016-Jul-16 19:31S 27°16' E 153°18'0 0.0
2016-Jul-16 18:31S 27°16' E 153°18'0 0.1
2016-Jul-16 17:31S 27°16' E 153°18'0 0.1
2016-Jul-16 16:31S 27°16' E 153°18'0 0.0
2016-Jul-16 15:31S 27°16' E 153°18'0 0.0
2016-Jul-16 14:28S 27°16' E 153°18'0 0.0
2016-Jul-16 13:31S 27°16' E 153°18'0 0.1
2016-Jul-16 12:31S 27°16' E 153°18'0 0.0
2016-Jul-16 11:31S 27°16' E 153°18'0 0.0
2016-Jul-16 10:31S 27°16' E 153°18'0 0.1
2016-Jul-16 09:31S 27°16' E 153°18'0 0.1
2016-Jul-16 08:31S 27°16' E 153°18'0 0.1
2016-Jul-16 07:31S 27°16' E 153°18'0 0.0
2016-Jul-16 06:31S 27°16' E 153°18'0 0.1
2016-Jul-16 04:31S 27°16' E 153°18'0 0.1
2016-Jul-16 03:31S 27°16' E 153°18'0 0.1
2016-Jul-16 02:31S 27°16' E 153°18'0 0.0
2016-Jul-16 01:31S 27°16' E 153°18'0 0.1
2016-Jul-16 00:31S 27°16' E 153°18'0 0.0
2016-Jul-15 23:31S 27°16' E 153°18'0 0.1
2016-Jul-15 22:31S 27°16' E 153°18'0 0.0
2016-Jul-15 21:31S 27°16' E 153°18'0 0.0
2016-Jul-15 20:31S 27°16' E 153°18'0 0.0
2016-Jul-15 19:31S 27°16' E 153°18'0 0.1
2016-Jul-15 18:31S 27°16' E 153°18'0 0.1
2016-Jul-15 17:31S 27°16' E 153°18'0 0.0
2016-Jul-15 16:31S 27°16' E 153°18'0 0.1
2016-Jul-15 15:31S 27°16' E 153°18'0 0.0
2016-Jul-15 14:31S 27°16' E 153°18'0 0.1
2016-Jul-15 13:31S 27°16' E 153°18'0 0.0
2016-Jul-15 12:31S 27°16' E 153°18'0 0.0
2016-Jul-15 11:31S 27°16' E 153°18'0 0.0
2016-Jul-15 10:31S 27°16' E 153°18'0 0.0
2016-Jul-15 09:31S 27°16' E 153°18'0 0.1
2016-Jul-15 08:31S 27°16' E 153°18'0 0.1
2016-Jul-15 07:31S 27°16' E 153°18'0 0.1
2016-Jul-15 06:31S 27°16' E 153°18'0 0.0
2016-Jul-15 05:31S 27°16' E 153°18'0 0.0
2016-Jul-15 04:28S 27°16' E 153°18'0 0.1
2016-Jul-15 03:31S 27°16' E 153°18'0 0.1
2016-Jul-15 02:31S 27°16' E 153°18'0 0.0
2016-Jul-15 01:31S 27°16' E 153°18'0 0.0
2016-Jul-15 00:25S 27°16' E 153°18'0 0.0
2016-Jul-14 23:31S 27°16' E 153°18'0 0.0
2016-Jul-14 22:31S 27°16' E 153°18'0 0.0
2016-Jul-14 21:31S 27°16' E 153°18'0 0.0
2016-Jul-14 20:31S 27°16' E 153°18'0 0.1
2016-Jul-14 19:31S 27°16' E 153°18'0 0.1
2016-Jul-14 18:31S 27°16' E 153°18'0 0.0
2016-Jul-14 17:31S 27°16' E 153°18'0 0.0
2016-Jul-14 16:31S 27°16' E 153°18'0 0.1
2016-Jul-14 15:31S 27°16' E 153°18'0 0.0
2016-Jul-14 14:31S 27°16' E 153°18'0 0.0
2016-Jul-14 13:31S 27°16' E 153°18'0 0.1
2016-Jul-14 12:28S 27°16' E 153°18'0 0.0
2016-Jul-14 11:31S 27°16' E 153°18'0 0.0
2016-Jul-14 10:31S 27°16' E 153°18'0 0.0
2016-Jul-14 04:31S 27°16' E 153°18'0 0.2
2016-Jul-14 03:31S 27°16' E 153°18'0 0.0
2016-Jul-14 02:28S 27°16' E 153°18'0 0.0
2016-Jul-14 01:31S 27°16' E 153°18'0 0.0
2016-Jul-14 00:31S 27°16' E 153°18'0 0.0
2016-Jul-13 23:31S 27°16' E 153°18'0 0.0
2016-Jul-13 22:31S 27°16' E 153°18'0 0.1
2016-Jul-13 21:31S 27°16' E 153°18'0 0.1
2016-Jul-13 20:31S 27°16' E 153°18'0 0.0
2016-Jul-13 19:31S 27°16' E 153°18'0 0.0
2016-Jul-13 18:31S 27°16' E 153°18'0 0.1
2016-Jul-13 17:31S 27°16' E 153°18'0 0.0
2016-Jul-13 16:31S 27°16' E 153°18'0 0.0
2016-Jul-13 15:31S 27°16' E 153°18'0 0.0
2016-Jul-13 14:31S 27°16' E 153°18'0 0.0
2016-Jul-13 13:31S 27°16' E 153°18'0 0.0
2016-Jul-13 12:31S 27°16' E 153°18'0 0.0
2016-Jul-13 11:31S 27°16' E 153°18'0 0.1
2016-Jul-13 10:31S 27°16' E 153°18'0 0.1
2016-Jul-13 09:31S 27°16' E 153°18'0 0.0
2016-Jul-13 08:31S 27°16' E 153°18'0 0.0
2016-Jul-13 07:31S 27°16' E 153°18'0 0.1
2016-Jul-13 06:31S 27°16' E 153°18'0 0.1
2016-Jul-13 05:31S 27°16' E 153°18'0 0.1
2016-Jul-13 04:31S 27°16' E 153°18'0 0.1
2016-Jul-13 03:33S 27°16' E 153°18'0 0.1
2016-Jul-13 02:33S 27°16' E 153°18'0 0.0
2016-Jul-13 01:33S 27°16' E 153°18'0 0.1
2016-Jul-13 00:33S 27°16' E 153°18'0 0.1
2016-Jul-12 23:33S 27°16' E 153°18'0 0.0
2016-Jul-12 22:33S 27°16' E 153°18'0 0.1
2016-Jul-12 21:30S 27°16' E 153°18'0 0.1
2016-Jul-12 20:30S 27°16' E 153°18'0 0.0
2016-Jul-12 19:33S 27°16' E 153°18'0 0.1
2016-Jul-12 18:33S 27°16' E 153°18'0 0.1
2016-Jul-12 17:33S 27°16' E 153°18'0 0.1
2016-Jul-12 16:33S 27°16' E 153°18'0 0.0
2016-Jul-12 15:33S 27°16' E 153°18'0 0.0
2016-Jul-12 14:33S 27°16' E 153°18'0 0.0
2016-Jul-12 13:33S 27°16' E 153°18'0 0.1
2016-Jul-12 12:33S 27°16' E 153°18'0 0.1
2016-Jul-12 11:33S 27°16' E 153°18'0 0.0
2016-Jul-12 10:33S 27°16' E 153°18'0 0.1
2016-Jul-12 09:33S 27°16' E 153°18'0 0.0
2016-Jul-12 08:33S 27°16' E 153°18'0 0.1
2016-Jul-12 07:33S 27°16' E 153°18'0 0.1
2016-Jul-12 06:33S 27°16' E 153°18'2 1.8
2016-Jul-12 05:33S 27°17' E 153°16'8 7.9
2016-Jul-12 04:34S 27°23' E 153°10'1 0.7
2016-Jul-12 03:32S 27°23' E 153°10'0 0.0
2016-Jul-12 02:32S 27°23' E 153°10'0 0.0
2016-Jul-12 01:32S 27°23' E 153°10'0 0.0
2016-Jul-12 00:32S 27°23' E 153°10'0 0.0
2016-Jul-11 23:32S 27°23' E 153°10'0 0.0
2016-Jul-11 22:32S 27°23' E 153°10'0 0.0
2016-Jul-11 21:32S 27°23' E 153°10'0 0.0
2016-Jul-11 20:32S 27°23' E 153°10'0 0.0
2016-Jul-11 19:32S 27°23' E 153°10'0 0.0
2016-Jul-11 18:32S 27°23' E 153°10'0 0.0
2016-Jul-11 17:32S 27°23' E 153°10'0 0.0
2016-Jul-11 16:32S 27°23' E 153°10'0 0.0
2016-Jul-11 15:32S 27°23' E 153°10'0 0.0
2016-Jul-11 14:32S 27°23' E 153°10'0 0.0
2016-Jul-11 13:32S 27°23' E 153°10'0 0.0
2016-Jul-11 12:32S 27°23' E 153°10'0 0.0
2016-Jul-11 11:32S 27°23' E 153°10'0 0.0
2016-Jul-11 10:32S 27°23' E 153°10'0 0.0
2016-Jul-11 09:32S 27°23' E 153°10'0 0.0
2016-Jul-11 08:32S 27°23' E 153°10'0 0.0
2016-Jul-11 07:29S 27°23' E 153°10'0 0.0
2016-Jul-11 06:32S 27°23' E 153°10'0 0.0
2016-Jul-11 04:32S 27°23' E 153°10'0 0.0
2016-Jul-11 03:32S 27°23' E 153°10'0 0.0
2016-Jul-11 02:32S 27°23' E 153°10'0 0.0
2016-Jul-11 01:32S 27°23' E 153°10'0 0.0
2016-Jul-11 00:32S 27°23' E 153°10'0 0.0
2016-Jul-10 23:05S 27°23' E 153°10'0 0.0
2016-Jul-10 22:32S 27°23' E 153°10'0 0.0
2016-Jul-10 21:32S 27°23' E 153°10'0 0.0
2016-Jul-10 20:32S 27°23' E 153°10'0 0.0
2016-Jul-10 19:32S 27°23' E 153°10'0 0.0
2016-Jul-10 18:32S 27°23' E 153°10'1 0.7
2016-Jul-10 17:34S 27°23' E 153°10'1111.2
2016-Jul-10 16:34S 27°15' E 153°19'1111.1
2016-Jul-10 15:34S 27°04' E 153°18'1212.3
2016-Jul-10 14:34S 26°53' E 153°11'1110.9
2016-Jul-10 13:34S 26°43' E 153°10'7 6.6
2016-Jul-10 12:31S 26°39' E 153°16'1 0.8
2016-Jul-10 11:27S 26°40' E 153°16'  
Track history (hours):
 
Tides and Currents Weather Stations Pressure Air Temp Water Temp Dewpoint Dewpoint Depression Visibility Wind Speed Wind Dir Waves Ship Positions

Three Stars

Last reported at 2016-Jul-17 10:33 UTC. Time now 2016-Jul-24 01:00 UTC.
Position S 26°43' E 153°18'.

Length 225 m; draft 13.9 m.

Type: Cargo ship. MMSI: 372950000.

Date/timePositionNaut miles runAvg speedWind from/ knotsBaromVisibWave heightAir tempDewpointWater temp
2016-Jul-17 10:33S 26°43' E 153°18'6 5.7
2016-Jul-17 09:28S 26°46' E 153°11'7 7.7
2016-Jul-17 08:33S 26°53' E 153°10'9 9.4
2016-Jul-17 07:33S 27°02' E 153°15'9 8.5
2016-Jul-17 06:33S 27°08' E 153°21'8 4.0
2016-Jul-17 04:31S 27°16' E 153°18'0 0.1
2016-Jul-17 03:31S 27°16' E 153°18'0 0.1
2016-Jul-17 02:31S 27°16' E 153°18'0 0.0
2016-Jul-17 01:31S 27°16' E 153°18'0 0.0
2016-Jul-17 00:31S 27°16' E 153°18'0 0.1
2016-Jul-16 23:31S 27°16' E 153°18'0 0.1
2016-Jul-16 22:31S 27°16' E 153°18'0 0.1
2016-Jul-16 21:31S 27°16' E 153°18'0 0.1
2016-Jul-16 20:31S 27°16' E 153°18'0 0.0
2016-Jul-16 19:31S 27°16' E 153°18'0 0.0
2016-Jul-16 18:31S 27°16' E 153°18'0 0.1
2016-Jul-16 17:31S 27°16' E 153°18'0 0.1
2016-Jul-16 16:31S 27°16' E 153°18'0 0.0
2016-Jul-16 15:31S 27°16' E 153°18'0 0.0
2016-Jul-16 14:28S 27°16' E 153°18'0 0.0
2016-Jul-16 13:31S 27°16' E 153°18'0 0.1
2016-Jul-16 12:31S 27°16' E 153°18'0 0.0
2016-Jul-16 11:31S 27°16' E 153°18'0 0.0
2016-Jul-16 10:31S 27°16' E 153°18'0 0.1
2016-Jul-16 09:31S 27°16' E 153°18'0 0.1
2016-Jul-16 08:31S 27°16' E 153°18'0 0.1
2016-Jul-16 07:31S 27°16' E 153°18'0 0.0
2016-Jul-16 06:31S 27°16' E 153°18'0 0.1
2016-Jul-16 04:31S 27°16' E 153°18'0 0.1
2016-Jul-16 03:31S 27°16' E 153°18'0 0.1
2016-Jul-16 02:31S 27°16' E 153°18'0 0.0
2016-Jul-16 01:31S 27°16' E 153°18'0 0.1
2016-Jul-16 00:31S 27°16' E 153°18'0 0.0
2016-Jul-15 23:31S 27°16' E 153°18'0 0.1
2016-Jul-15 22:31S 27°16' E 153°18'0 0.0
2016-Jul-15 21:31S 27°16' E 153°18'0 0.0
2016-Jul-15 20:31S 27°16' E 153°18'0 0.0
2016-Jul-15 19:31S 27°16' E 153°18'0 0.1
2016-Jul-15 18:31S 27°16' E 153°18'0 0.1
2016-Jul-15 17:31S 27°16' E 153°18'0 0.0
2016-Jul-15 16:31S 27°16' E 153°18'0 0.1
2016-Jul-15 15:31S 27°16' E 153°18'0 0.0
2016-Jul-15 14:31S 27°16' E 153°18'0 0.1
2016-Jul-15 13:31S 27°16' E 153°18'0 0.0
2016-Jul-15 12:31S 27°16' E 153°18'0 0.0
2016-Jul-15 11:31S 27°16' E 153°18'0 0.0
2016-Jul-15 10:31S 27°16' E 153°18'0 0.0
2016-Jul-15 09:31S 27°16' E 153°18'0 0.1
2016-Jul-15 08:31S 27°16' E 153°18'0 0.1
2016-Jul-15 07:31S 27°16' E 153°18'0 0.1
2016-Jul-15 06:31S 27°16' E 153°18'0 0.0
2016-Jul-15 05:31S 27°16' E 153°18'0 0.0
2016-Jul-15 04:28S 27°16' E 153°18'0 0.1
2016-Jul-15 03:31S 27°16' E 153°18'0 0.1
2016-Jul-15 02:31S 27°16' E 153°18'0 0.0
2016-Jul-15 01:31S 27°16' E 153°18'0 0.0
2016-Jul-15 00:25S 27°16' E 153°18'0 0.0
2016-Jul-14 23:31S 27°16' E 153°18'0 0.0
2016-Jul-14 22:31S 27°16' E 153°18'0 0.0
2016-Jul-14 21:31S 27°16' E 153°18'0 0.0
2016-Jul-14 20:31S 27°16' E 153°18'0 0.1
2016-Jul-14 19:31S 27°16' E 153°18'0 0.1
2016-Jul-14 18:31S 27°16' E 153°18'0 0.0
2016-Jul-14 17:31S 27°16' E 153°18'0 0.0
2016-Jul-14 16:31S 27°16' E 153°18'0 0.1
2016-Jul-14 15:31S 27°16' E 153°18'0 0.0
2016-Jul-14 14:31S 27°16' E 153°18'0 0.0
2016-Jul-14 13:31S 27°16' E 153°18'0 0.1
2016-Jul-14 12:28S 27°16' E 153°18'0 0.0
2016-Jul-14 11:31S 27°16' E 153°18'0 0.0
2016-Jul-14 10:31S 27°16' E 153°18'0 0.0
2016-Jul-14 04:31S 27°16' E 153°18'0 0.2
2016-Jul-14 03:31S 27°16' E 153°18'0 0.0
2016-Jul-14 02:28S 27°16' E 153°18'0 0.0
2016-Jul-14 01:31S 27°16' E 153°18'0 0.0
2016-Jul-14 00:31S 27°16' E 153°18'0 0.0
2016-Jul-13 23:31S 27°16' E 153°18'0 0.0
2016-Jul-13 22:31S 27°16' E 153°18'0 0.1
2016-Jul-13 21:31S 27°16' E 153°18'0 0.1
2016-Jul-13 20:31S 27°16' E 153°18'0 0.0
2016-Jul-13 19:31S 27°16' E 153°18'0 0.0
2016-Jul-13 18:31S 27°16' E 153°18'0 0.1
2016-Jul-13 17:31S 27°16' E 153°18'0 0.0
2016-Jul-13 16:31S 27°16' E 153°18'0 0.0
2016-Jul-13 15:31S 27°16' E 153°18'0 0.0
2016-Jul-13 14:31S 27°16' E 153°18'0 0.0
2016-Jul-13 13:31S 27°16' E 153°18'0 0.0
2016-Jul-13 12:31S 27°16' E 153°18'0 0.0
2016-Jul-13 11:31S 27°16' E 153°18'0 0.1
2016-Jul-13 10:31S 27°16' E 153°18'0 0.1
2016-Jul-13 09:31S 27°16' E 153°18'0 0.0
2016-Jul-13 08:31S 27°16' E 153°18'0 0.0
2016-Jul-13 07:31S 27°16' E 153°18'0 0.1
2016-Jul-13 06:31S 27°16' E 153°18'0 0.1
2016-Jul-13 05:31S 27°16' E 153°18'0 0.1
2016-Jul-13 04:31S 27°16' E 153°18'0 0.1
2016-Jul-13 03:33S 27°16' E 153°18'0 0.1
2016-Jul-13 02:33S 27°16' E 153°18'0 0.0
2016-Jul-13 01:33S 27°16' E 153°18'0 0.1
2016-Jul-13 00:33S 27°16' E 153°18'0 0.1
2016-Jul-12 23:33S 27°16' E 153°18'0 0.0
2016-Jul-12 22:33S 27°16' E 153°18'0 0.1
2016-Jul-12 21:30S 27°16' E 153°18'0 0.1
2016-Jul-12 20:30S 27°16' E 153°18'0 0.0
2016-Jul-12 19:33S 27°16' E 153°18'0 0.1
2016-Jul-12 18:33S 27°16' E 153°18'0 0.1
2016-Jul-12 17:33S 27°16' E 153°18'0 0.1
2016-Jul-12 16:33S 27°16' E 153°18'0 0.0
2016-Jul-12 15:33S 27°16' E 153°18'0 0.0
2016-Jul-12 14:33S 27°16' E 153°18'0 0.0
2016-Jul-12 13:33S 27°16' E 153°18'0 0.1
2016-Jul-12 12:33S 27°16' E 153°18'0 0.1
2016-Jul-12 11:33S 27°16' E 153°18'0 0.0
2016-Jul-12 10:33S 27°16' E 153°18'0 0.1
2016-Jul-12 09:33S 27°16' E 153°18'0 0.0
2016-Jul-12 08:33S 27°16' E 153°18'0 0.1
2016-Jul-12 07:33S 27°16' E 153°18'0 0.1
2016-Jul-12 06:33S 27°16' E 153°18'2 1.8
2016-Jul-12 05:33S 27°17' E 153°16'8 7.9
2016-Jul-12 04:34S 27°23' E 153°10'1 0.7
2016-Jul-12 03:32S 27°23' E 153°10'0 0.0
2016-Jul-12 02:32S 27°23' E 153°10'0 0.0
2016-Jul-12 01:32S 27°23' E 153°10'0 0.0
2016-Jul-12 00:32S 27°23' E 153°10'0 0.0
2016-Jul-11 23:32S 27°23' E 153°10'0 0.0
2016-Jul-11 22:32S 27°23' E 153°10'0 0.0
2016-Jul-11 21:32S 27°23' E 153°10'0 0.0
2016-Jul-11 20:32S 27°23' E 153°10'0 0.0
2016-Jul-11 19:32S 27°23' E 153°10'0 0.0
2016-Jul-11 18:32S 27°23' E 153°10'0 0.0
2016-Jul-11 17:32S 27°23' E 153°10'0 0.0
2016-Jul-11 16:32S 27°23' E 153°10'0 0.0
2016-Jul-11 15:32S 27°23' E 153°10'0 0.0
2016-Jul-11 14:32S 27°23' E 153°10'0 0.0
2016-Jul-11 13:32S 27°23' E 153°10'0 0.0
2016-Jul-11 12:32S 27°23' E 153°10'0 0.0
2016-Jul-11 11:32S 27°23' E 153°10'0 0.0
2016-Jul-11 10:32S 27°23' E 153°10'0 0.0
2016-Jul-11 09:32S 27°23' E 153°10'0 0.0
2016-Jul-11 08:32S 27°23' E 153°10'0 0.0
2016-Jul-11 07:29S 27°23' E 153°10'0 0.0
2016-Jul-11 06:32S 27°23' E 153°10'0 0.0
2016-Jul-11 04:32S 27°23' E 153°10'0 0.0
2016-Jul-11 03:32S 27°23' E 153°10'0 0.0
2016-Jul-11 02:32S 27°23' E 153°10'0 0.0
2016-Jul-11 01:32S 27°23' E 153°10'0 0.0
2016-Jul-11 00:32S 27°23' E 153°10'0 0.0
2016-Jul-10 23:05S 27°23' E 153°10'0 0.0
2016-Jul-10 22:32S 27°23' E 153°10'0 0.0
2016-Jul-10 21:32S 27°23' E 153°10'0 0.0
2016-Jul-10 20:32S 27°23' E 153°10'0 0.0
2016-Jul-10 19:32S 27°23' E 153°10'0 0.0
2016-Jul-10 18:32S 27°23' E 153°10'1 0.7
2016-Jul-10 17:34S 27°23' E 153°10'1111.2
2016-Jul-10 16:34S 27°15' E 153°19'1111.1
2016-Jul-10 15:34S 27°04' E 153°18'1212.3
2016-Jul-10 14:34S 26°53' E 153°11'1110.9
2016-Jul-10 13:34S 26°43' E 153°10'7 6.6
2016-Jul-10 12:31S 26°39' E 153°16'1 0.8
2016-Jul-10 11:27S 26°40' E 153°16'  

Dump ship's entire track history